sensor_id;sensor_type;location;lat;lon;timestamp;P1;durP1;ratioP1;P2;durP2;ratioP2
15082;SDS011;7640;53.116;6.878;2022-11-20T00:01:36;35.63;;;21.57;;
15082;SDS011;7640;53.116;6.878;2022-11-20T00:04:04;36.60;;;22.27;;
15082;SDS011;7640;53.116;6.878;2022-11-20T00:06:32;32.80;;;21.10;;
15082;SDS011;7640;53.116;6.878;2022-11-20T00:09:02;30.87;;;20.87;;
15082;SDS011;7640;53.116;6.878;2022-11-20T00:11:31;34.83;;;21.17;;
15082;SDS011;7640;53.116;6.878;2022-11-20T00:14:00;32.33;;;20.20;;
15082;SDS011;7640;53.116;6.878;2022-11-20T00:16:30;31.33;;;19.80;;
15082;SDS011;7640;53.116;6.878;2022-11-20T00:19:00;34.60;;;20.30;;
15082;SDS011;7640;53.116;6.878;2022-11-20T00:21:29;30.43;;;18.20;;
15082;SDS011;7640;53.116;6.878;2022-11-20T00:23:57;29.57;;;18.40;;
15082;SDS011;7640;53.116;6.878;2022-11-20T00:26:27;31.10;;;18.27;;
15082;SDS011;7640;53.116;6.878;2022-11-20T00:28:57;30.47;;;18.40;;
15082;SDS011;7640;53.116;6.878;2022-11-20T00:31:27;33.40;;;19.60;;
15082;SDS011;7640;53.116;6.878;2022-11-20T00:33:56;30.83;;;17.43;;
15082;SDS011;7640;53.116;6.878;2022-11-20T00:36:25;28.50;;;17.10;;
15082;SDS011;7640;53.116;6.878;2022-11-20T00:38:56;28.87;;;17.30;;
15082;SDS011;7640;53.116;6.878;2022-11-20T00:41:25;30.20;;;17.43;;
15082;SDS011;7640;53.116;6.878;2022-11-20T00:43:56;28.63;;;17.33;;
15082;SDS011;7640;53.116;6.878;2022-11-20T00:46:25;26.47;;;16.07;;
15082;SDS011;7640;53.116;6.878;2022-11-20T00:48:55;28.13;;;16.20;;
15082;SDS011;7640;53.116;6.878;2022-11-20T00:51:25;28.47;;;16.70;;
15082;SDS011;7640;53.116;6.878;2022-11-20T00:53:54;27.77;;;16.47;;
15082;SDS011;7640;53.116;6.878;2022-11-20T00:56:27;25.77;;;15.00;;
15082;SDS011;7640;53.116;6.878;2022-11-20T00:58:58;28.97;;;16.57;;
15082;SDS011;7640;53.116;6.878;2022-11-20T01:01:27;30.23;;;16.80;;
15082;SDS011;7640;53.116;6.878;2022-11-20T01:03:57;26.17;;;15.50;;
15082;SDS011;7640;53.116;6.878;2022-11-20T01:06:29;26.17;;;15.07;;
15082;SDS011;7640;53.116;6.878;2022-11-20T01:09:00;26.10;;;15.53;;
15082;SDS011;7640;53.116;6.878;2022-11-20T01:11:32;25.27;;;15.77;;
15082;SDS011;7640;53.116;6.878;2022-11-20T01:14:03;25.10;;;15.67;;
15082;SDS011;7640;53.116;6.878;2022-11-20T01:16:34;26.67;;;16.77;;
15082;SDS011;7640;53.116;6.878;2022-11-20T01:19:05;25.80;;;15.63;;
15082;SDS011;7640;53.116;6.878;2022-11-20T01:21:42;27.83;;;16.30;;
15082;SDS011;7640;53.116;6.878;2022-11-20T01:24:13;24.80;;;15.23;;
15082;SDS011;7640;53.116;6.878;2022-11-20T01:26:46;24.97;;;15.70;;
15082;SDS011;7640;53.116;6.878;2022-11-20T01:29:18;25.37;;;15.70;;
15082;SDS011;7640;53.116;6.878;2022-11-20T01:31:49;28.80;;;16.73;;
15082;SDS011;7640;53.116;6.878;2022-11-20T01:34:19;25.80;;;15.97;;
15082;SDS011;7640;53.116;6.878;2022-11-20T01:36:49;24.97;;;15.90;;
15082;SDS011;7640;53.116;6.878;2022-11-20T01:39:19;27.53;;;16.40;;
15082;SDS011;7640;53.116;6.878;2022-11-20T01:41:51;27.87;;;16.73;;
15082;SDS011;7640;53.116;6.878;2022-11-20T01:47:28;26.50;;;15.90;;
15082;SDS011;7640;53.116;6.878;2022-11-20T01:50:03;26.93;;;16.83;;
15082;SDS011;7640;53.116;6.878;2022-11-20T01:52:34;24.73;;;16.13;;
15082;SDS011;7640;53.116;6.878;2022-11-20T01:55:08;27.73;;;17.63;;
15082;SDS011;7640;53.116;6.878;2022-11-20T01:57:41;27.27;;;17.07;;
15082;SDS011;7640;53.116;6.878;2022-11-20T02:00:14;25.30;;;15.93;;
15082;SDS011;7640;53.116;6.878;2022-11-20T02:02:45;30.20;;;17.53;;
15082;SDS011;7640;53.116;6.878;2022-11-20T02:05:20;28.97;;;17.63;;
15082;SDS011;7640;53.116;6.878;2022-11-20T02:07:54;29.17;;;16.80;;
15082;SDS011;7640;53.116;6.878;2022-11-20T02:10:25;25.17;;;16.63;;
15082;SDS011;7640;53.116;6.878;2022-11-20T02:12:56;24.40;;;16.37;;
15082;SDS011;7640;53.116;6.878;2022-11-20T02:15:43;26.13;;;16.73;;
15082;SDS011;7640;53.116;6.878;2022-11-20T02:18:13;25.83;;;16.40;;
15082;SDS011;7640;53.116;6.878;2022-11-20T02:20:44;26.10;;;17.43;;
15082;SDS011;7640;53.116;6.878;2022-11-20T02:23:16;28.40;;;18.40;;
15082;SDS011;7640;53.116;6.878;2022-11-20T02:25:54;27.07;;;16.27;;
15082;SDS011;7640;53.116;6.878;2022-11-20T02:28:24;25.27;;;16.17;;
15082;SDS011;7640;53.116;6.878;2022-11-20T02:30:52;26.37;;;16.93;;
15082;SDS011;7640;53.116;6.878;2022-11-20T02:33:21;24.63;;;16.80;;
15082;SDS011;7640;53.116;6.878;2022-11-20T02:35:49;24.53;;;16.33;;
15082;SDS011;7640;53.116;6.878;2022-11-20T02:38:18;26.23;;;16.37;;
15082;SDS011;7640;53.116;6.878;2022-11-20T02:40:46;25.10;;;16.63;;
15082;SDS011;7640;53.116;6.878;2022-11-20T02:43:22;28.20;;;16.93;;
15082;SDS011;7640;53.116;6.878;2022-11-20T02:45:50;24.23;;;15.77;;
15082;SDS011;7640;53.116;6.878;2022-11-20T02:48:18;25.13;;;16.43;;
15082;SDS011;7640;53.116;6.878;2022-11-20T02:50:50;25.20;;;15.97;;
15082;SDS011;7640;53.116;6.878;2022-11-20T02:53:18;24.77;;;16.10;;
15082;SDS011;7640;53.116;6.878;2022-11-20T02:55:46;25.23;;;15.70;;
15082;SDS011;7640;53.116;6.878;2022-11-20T02:58:15;24.43;;;15.73;;
15082;SDS011;7640;53.116;6.878;2022-11-20T03:00:44;24.60;;;15.67;;
15082;SDS011;7640;53.116;6.878;2022-11-20T03:03:13;23.67;;;15.33;;
15082;SDS011;7640;53.116;6.878;2022-11-20T03:05:41;24.37;;;15.63;;
15082;SDS011;7640;53.116;6.878;2022-11-20T03:08:09;27.10;;;15.73;;
15082;SDS011;7640;53.116;6.878;2022-11-20T03:10:37;26.13;;;15.70;;
15082;SDS011;7640;53.116;6.878;2022-11-20T03:13:06;24.33;;;15.03;;
15082;SDS011;7640;53.116;6.878;2022-11-20T03:15:35;26.20;;;16.17;;
15082;SDS011;7640;53.116;6.878;2022-11-20T03:18:05;21.50;;;14.83;;
15082;SDS011;7640;53.116;6.878;2022-11-20T03:20:33;26.27;;;16.03;;
15082;SDS011;7640;53.116;6.878;2022-11-20T03:23:02;25.23;;;15.60;;
15082;SDS011;7640;53.116;6.878;2022-11-20T03:25:33;22.73;;;14.60;;
15082;SDS011;7640;53.116;6.878;2022-11-20T03:28:01;25.80;;;14.97;;
15082;SDS011;7640;53.116;6.878;2022-11-20T03:30:30;23.93;;;14.80;;
15082;SDS011;7640;53.116;6.878;2022-11-20T03:32:58;23.97;;;15.23;;
15082;SDS011;7640;53.116;6.878;2022-11-20T03:35:27;22.57;;;14.63;;
15082;SDS011;7640;53.116;6.878;2022-11-20T03:37:57;23.50;;;14.93;;
15082;SDS011;7640;53.116;6.878;2022-11-20T03:40:25;21.83;;;14.47;;
15082;SDS011;7640;53.116;6.878;2022-11-20T03:42:53;23.50;;;15.33;;
15082;SDS011;7640;53.116;6.878;2022-11-20T03:45:22;22.93;;;14.10;;
15082;SDS011;7640;53.116;6.878;2022-11-20T03:47:50;23.00;;;14.57;;
15082;SDS011;7640;53.116;6.878;2022-11-20T03:50:18;21.77;;;14.13;;
15082;SDS011;7640;53.116;6.878;2022-11-20T03:52:48;24.17;;;14.90;;
15082;SDS011;7640;53.116;6.878;2022-11-20T03:55:16;21.73;;;14.33;;
15082;SDS011;7640;53.116;6.878;2022-11-20T03:57:45;21.40;;;13.57;;
15082;SDS011;7640;53.116;6.878;2022-11-20T04:00:13;23.00;;;14.47;;
15082;SDS011;7640;53.116;6.878;2022-11-20T04:02:42;21.37;;;13.50;;
15082;SDS011;7640;53.116;6.878;2022-11-20T04:05:10;22.77;;;15.30;;
15082;SDS011;7640;53.116;6.878;2022-11-20T04:07:39;22.47;;;14.40;;
15082;SDS011;7640;53.116;6.878;2022-11-20T04:10:09;20.83;;;13.57;;
15082;SDS011;7640;53.116;6.878;2022-11-20T04:12:37;22.80;;;13.93;;
15082;SDS011;7640;53.116;6.878;2022-11-20T04:15:05;21.03;;;13.87;;
15082;SDS011;7640;53.116;6.878;2022-11-20T04:17:34;22.17;;;14.20;;
15082;SDS011;7640;53.116;6.878;2022-11-20T04:20:03;22.70;;;14.43;;
15082;SDS011;7640;53.116;6.878;2022-11-20T04:22:33;22.03;;;14.33;;
15082;SDS011;7640;53.116;6.878;2022-11-20T04:25:01;24.30;;;14.23;;
15082;SDS011;7640;53.116;6.878;2022-11-20T04:27:31;21.03;;;14.27;;
15082;SDS011;7640;53.116;6.878;2022-11-20T04:30:00;21.93;;;14.50;;
15082;SDS011;7640;53.116;6.878;2022-11-20T04:32:28;19.70;;;13.83;;
15082;SDS011;7640;53.116;6.878;2022-11-20T04:34:56;25.13;;;15.50;;
15082;SDS011;7640;53.116;6.878;2022-11-20T04:37:25;21.20;;;14.23;;
15082;SDS011;7640;53.116;6.878;2022-11-20T04:39:53;20.53;;;13.70;;
15082;SDS011;7640;53.116;6.878;2022-11-20T04:42:21;22.90;;;14.20;;
15082;SDS011;7640;53.116;6.878;2022-11-20T04:44:56;21.57;;;14.37;;
15082;SDS011;7640;53.116;6.878;2022-11-20T04:47:25;22.57;;;14.43;;
15082;SDS011;7640;53.116;6.878;2022-11-20T04:49:53;24.10;;;15.80;;
15082;SDS011;7640;53.116;6.878;2022-11-20T04:52:21;22.03;;;15.17;;
15082;SDS011;7640;53.116;6.878;2022-11-20T04:54:50;21.93;;;14.10;;
15082;SDS011;7640;53.116;6.878;2022-11-20T04:57:19;23.63;;;14.87;;
15082;SDS011;7640;53.116;6.878;2022-11-20T04:59:47;23.43;;;14.10;;
15082;SDS011;7640;53.116;6.878;2022-11-20T05:02:17;23.60;;;15.27;;
15082;SDS011;7640;53.116;6.878;2022-11-20T05:04:46;22.43;;;14.60;;
15082;SDS011;7640;53.116;6.878;2022-11-20T05:07:14;23.80;;;15.00;;
15082;SDS011;7640;53.116;6.878;2022-11-20T05:09:43;24.40;;;15.03;;
15082;SDS011;7640;53.116;6.878;2022-11-20T05:12:11;22.20;;;14.93;;
15082;SDS011;7640;53.116;6.878;2022-11-20T05:14:39;23.63;;;14.90;;
15082;SDS011;7640;53.116;6.878;2022-11-20T05:17:09;21.97;;;14.50;;
15082;SDS011;7640;53.116;6.878;2022-11-20T05:19:41;24.13;;;14.73;;
15082;SDS011;7640;53.116;6.878;2022-11-20T05:22:09;21.30;;;14.33;;
15082;SDS011;7640;53.116;6.878;2022-11-20T05:24:37;21.57;;;14.20;;
15082;SDS011;7640;53.116;6.878;2022-11-20T05:27:05;20.30;;;13.57;;
15082;SDS011;7640;53.116;6.878;2022-11-20T05:29:34;20.60;;;13.83;;
15082;SDS011;7640;53.116;6.878;2022-11-20T05:32:02;20.77;;;13.40;;
15082;SDS011;7640;53.116;6.878;2022-11-20T05:34:32;21.77;;;13.60;;
15082;SDS011;7640;53.116;6.878;2022-11-20T05:37:02;20.23;;;13.03;;
15082;SDS011;7640;53.116;6.878;2022-11-20T05:39:30;20.40;;;12.67;;
15082;SDS011;7640;53.116;6.878;2022-11-20T05:41:58;21.00;;;12.83;;
15082;SDS011;7640;53.116;6.878;2022-11-20T05:44:40;19.40;;;12.43;;
15082;SDS011;7640;53.116;6.878;2022-11-20T05:47:10;19.80;;;12.43;;
15082;SDS011;7640;53.116;6.878;2022-11-20T05:49:38;17.90;;;11.93;;
15082;SDS011;7640;53.116;6.878;2022-11-20T05:52:08;18.90;;;12.37;;
15082;SDS011;7640;53.116;6.878;2022-11-20T05:54:36;20.30;;;12.63;;
15082;SDS011;7640;53.116;6.878;2022-11-20T05:57:04;19.97;;;12.97;;
15082;SDS011;7640;53.116;6.878;2022-11-20T05:59:33;18.60;;;11.77;;
15082;SDS011;7640;53.116;6.878;2022-11-20T06:02:01;16.90;;;11.87;;
15082;SDS011;7640;53.116;6.878;2022-11-20T06:04:29;16.07;;;11.33;;
15082;SDS011;7640;53.116;6.878;2022-11-20T06:06:58;19.40;;;12.17;;
15082;SDS011;7640;53.116;6.878;2022-11-20T06:09:27;18.23;;;11.30;;
15082;SDS011;7640;53.116;6.878;2022-11-20T06:11:56;18.50;;;11.73;;
15082;SDS011;7640;53.116;6.878;2022-11-20T06:14:24;18.63;;;11.93;;
15082;SDS011;7640;53.116;6.878;2022-11-20T06:16:52;18.53;;;11.67;;
15082;SDS011;7640;53.116;6.878;2022-11-20T06:19:21;20.47;;;12.37;;
15082;SDS011;7640;53.116;6.878;2022-11-20T06:21:49;20.10;;;12.73;;
15082;SDS011;7640;53.116;6.878;2022-11-20T06:24:18;18.53;;;12.03;;
15082;SDS011;7640;53.116;6.878;2022-11-20T06:26:48;16.73;;;11.50;;
15082;SDS011;7640;53.116;6.878;2022-11-20T06:29:16;18.67;;;11.70;;
15082;SDS011;7640;53.116;6.878;2022-11-20T06:31:45;17.73;;;12.03;;
15082;SDS011;7640;53.116;6.878;2022-11-20T06:34:13;18.97;;;12.17;;
15082;SDS011;7640;53.116;6.878;2022-11-20T06:36:42;19.03;;;12.30;;
15082;SDS011;7640;53.116;6.878;2022-11-20T06:39:10;18.57;;;12.30;;
15082;SDS011;7640;53.116;6.878;2022-11-20T06:41:38;18.40;;;11.97;;
15082;SDS011;7640;53.116;6.878;2022-11-20T06:44:08;18.33;;;12.50;;
15082;SDS011;7640;53.116;6.878;2022-11-20T06:46:36;19.17;;;12.53;;
15082;SDS011;7640;53.116;6.878;2022-11-20T06:49:04;17.97;;;11.57;;
15082;SDS011;7640;53.116;6.878;2022-11-20T06:51:33;20.43;;;11.93;;
15082;SDS011;7640;53.116;6.878;2022-11-20T06:54:01;17.93;;;12.17;;
15082;SDS011;7640;53.116;6.878;2022-11-20T06:56:29;17.10;;;11.57;;
15082;SDS011;7640;53.116;6.878;2022-11-20T06:58:58;17.67;;;11.53;;
15082;SDS011;7640;53.116;6.878;2022-11-20T07:01:32;17.60;;;11.37;;
15082;SDS011;7640;53.116;6.878;2022-11-20T07:04:01;19.17;;;12.67;;
15082;SDS011;7640;53.116;6.878;2022-11-20T07:06:30;19.70;;;12.67;;
15082;SDS011;7640;53.116;6.878;2022-11-20T07:08:58;20.43;;;13.20;;
15082;SDS011;7640;53.116;6.878;2022-11-20T07:11:28;23.80;;;13.70;;
15082;SDS011;7640;53.116;6.878;2022-11-20T07:13:59;20.53;;;12.87;;
15082;SDS011;7640;53.116;6.878;2022-11-20T07:16:28;18.60;;;12.10;;
15082;SDS011;7640;53.116;6.878;2022-11-20T07:18:57;19.67;;;12.87;;
15082;SDS011;7640;53.116;6.878;2022-11-20T07:21:26;18.03;;;12.20;;
15082;SDS011;7640;53.116;6.878;2022-11-20T07:23:54;17.97;;;12.53;;
15082;SDS011;7640;53.116;6.878;2022-11-20T07:26:23;18.77;;;12.30;;
15082;SDS011;7640;53.116;6.878;2022-11-20T07:28:51;16.07;;;11.03;;
15082;SDS011;7640;53.116;6.878;2022-11-20T07:31:19;18.00;;;11.97;;
15082;SDS011;7640;53.116;6.878;2022-11-20T07:33:48;19.00;;;12.70;;
15082;SDS011;7640;53.116;6.878;2022-11-20T07:36:18;19.27;;;13.07;;
15082;SDS011;7640;53.116;6.878;2022-11-20T07:38:46;19.00;;;12.43;;
15082;SDS011;7640;53.116;6.878;2022-11-20T07:41:15;19.67;;;12.03;;
15082;SDS011;7640;53.116;6.878;2022-11-20T07:43:43;16.80;;;11.43;;
15082;SDS011;7640;53.116;6.878;2022-11-20T07:46:11;19.13;;;12.10;;
15082;SDS011;7640;53.116;6.878;2022-11-20T07:48:39;20.63;;;12.33;;
15082;SDS011;7640;53.116;6.878;2022-11-20T07:51:07;19.53;;;12.73;;
15082;SDS011;7640;53.116;6.878;2022-11-20T07:53:37;19.47;;;12.67;;
15082;SDS011;7640;53.116;6.878;2022-11-20T07:56:05;21.63;;;14.53;;
15082;SDS011;7640;53.116;6.878;2022-11-20T07:58:34;21.23;;;13.00;;
15082;SDS011;7640;53.116;6.878;2022-11-20T08:01:03;20.07;;;12.80;;
15082;SDS011;7640;53.116;6.878;2022-11-20T08:03:32;17.40;;;12.10;;
15082;SDS011;7640;53.116;6.878;2022-11-20T08:06:01;17.73;;;12.20;;
15082;SDS011;7640;53.116;6.878;2022-11-20T08:08:30;17.00;;;11.37;;
15082;SDS011;7640;53.116;6.878;2022-11-20T08:11:01;18.27;;;11.67;;
15082;SDS011;7640;53.116;6.878;2022-11-20T08:13:47;17.23;;;10.90;;
15082;SDS011;7640;53.116;6.878;2022-11-20T08:16:32;16.30;;;10.90;;
15082;SDS011;7640;53.116;6.878;2022-11-20T08:19:00;15.63;;;10.87;;
15082;SDS011;7640;53.116;6.878;2022-11-20T08:21:29;15.67;;;10.03;;
15082;SDS011;7640;53.116;6.878;2022-11-20T08:24:03;17.20;;;10.03;;
15082;SDS011;7640;53.116;6.878;2022-11-20T08:26:34;16.70;;;10.33;;
15082;SDS011;7640;53.116;6.878;2022-11-20T08:29:04;15.53;;;10.00;;
15082;SDS011;7640;53.116;6.878;2022-11-20T08:31:33;15.20;;;10.07;;
15082;SDS011;7640;53.116;6.878;2022-11-20T08:34:01;16.00;;;10.63;;
15082;SDS011;7640;53.116;6.878;2022-11-20T08:36:34;14.83;;;10.23;;
15082;SDS011;7640;53.116;6.878;2022-11-20T08:39:03;15.83;;;10.63;;
15082;SDS011;7640;53.116;6.878;2022-11-20T08:41:32;15.33;;;10.87;;
15082;SDS011;7640;53.116;6.878;2022-11-20T08:44:03;15.37;;;10.97;;
15082;SDS011;7640;53.116;6.878;2022-11-20T08:46:34;15.87;;;10.97;;
15082;SDS011;7640;53.116;6.878;2022-11-20T08:49:04;17.70;;;10.83;;
15082;SDS011;7640;53.116;6.878;2022-11-20T08:51:34;15.80;;;11.47;;
15082;SDS011;7640;53.116;6.878;2022-11-20T08:54:02;15.10;;;10.40;;
15082;SDS011;7640;53.116;6.878;2022-11-20T08:56:32;17.17;;;11.90;;
15082;SDS011;7640;53.116;6.878;2022-11-20T08:59:00;15.80;;;10.93;;
15082;SDS011;7640;53.116;6.878;2022-11-20T09:01:50;17.80;;;10.93;;
15082;SDS011;7640;53.116;6.878;2022-11-20T09:04:18;15.43;;;10.93;;
15082;SDS011;7640;53.116;6.878;2022-11-20T09:06:47;16.47;;;11.13;;
15082;SDS011;7640;53.116;6.878;2022-11-20T09:09:17;16.50;;;11.07;;
15082;SDS011;7640;53.116;6.878;2022-11-20T09:11:46;16.57;;;11.20;;
15082;SDS011;7640;53.116;6.878;2022-11-20T09:14:17;15.67;;;11.23;;
15082;SDS011;7640;53.116;6.878;2022-11-20T09:16:45;16.37;;;11.00;;
15082;SDS011;7640;53.116;6.878;2022-11-20T09:19:14;17.90;;;10.87;;
15082;SDS011;7640;53.116;6.878;2022-11-20T09:22:02;19.80;;;10.90;;
15082;SDS011;7640;53.116;6.878;2022-11-20T09:24:31;17.00;;;11.23;;
15082;SDS011;7640;53.116;6.878;2022-11-20T09:27:01;18.70;;;11.53;;
15082;SDS011;7640;53.116;6.878;2022-11-20T09:29:32;16.23;;;10.90;;
15082;SDS011;7640;53.116;6.878;2022-11-20T09:32:00;16.00;;;11.17;;
15082;SDS011;7640;53.116;6.878;2022-11-20T09:34:29;15.40;;;10.20;;
15082;SDS011;7640;53.116;6.878;2022-11-20T09:36:57;15.77;;;10.17;;
15082;SDS011;7640;53.116;6.878;2022-11-20T09:39:31;14.10;;;9.93;;
15082;SDS011;7640;53.116;6.878;2022-11-20T09:45:14;16.13;;;10.47;;
15082;SDS011;7640;53.116;6.878;2022-11-20T09:47:57;16.33;;;11.00;;
15082;SDS011;7640;53.116;6.878;2022-11-20T09:50:43;15.17;;;9.60;;
15082;SDS011;7640;53.116;6.878;2022-11-20T09:53:18;14.70;;;9.50;;
15082;SDS011;7640;53.116;6.878;2022-11-20T09:55:55;15.57;;;10.43;;
15082;SDS011;7640;53.116;6.878;2022-11-20T09:58:25;15.27;;;10.20;;
15082;SDS011;7640;53.116;6.878;2022-11-20T10:01:05;14.63;;;9.63;;
15082;SDS011;7640;53.116;6.878;2022-11-20T10:03:44;14.53;;;9.90;;
15082;SDS011;7640;53.116;6.878;2022-11-20T10:06:21;15.13;;;10.27;;
15082;SDS011;7640;53.116;6.878;2022-11-20T10:08:59;17.03;;;10.17;;
15082;SDS011;7640;53.116;6.878;2022-11-20T10:11:44;15.73;;;10.90;;
15082;SDS011;7640;53.116;6.878;2022-11-20T10:14:23;15.13;;;9.30;;
15082;SDS011;7640;53.116;6.878;2022-11-20T10:17:02;14.90;;;9.97;;
15082;SDS011;7640;53.116;6.878;2022-11-20T10:19:43;13.97;;;9.37;;
15082;SDS011;7640;53.116;6.878;2022-11-20T10:22:27;14.00;;;9.87;;
15082;SDS011;7640;53.116;6.878;2022-11-20T10:25:13;13.20;;;9.73;;
15082;SDS011;7640;53.116;6.878;2022-11-20T10:27:49;14.67;;;10.03;;
15082;SDS011;7640;53.116;6.878;2022-11-20T10:30:40;14.87;;;10.50;;
15082;SDS011;7640;53.116;6.878;2022-11-20T10:33:15;15.17;;;10.77;;
15082;SDS011;7640;53.116;6.878;2022-11-20T10:35:49;15.03;;;10.03;;
15082;SDS011;7640;53.116;6.878;2022-11-20T10:38:37;14.57;;;10.00;;
15082;SDS011;7640;53.116;6.878;2022-11-20T10:41:12;14.13;;;9.77;;
15082;SDS011;7640;53.116;6.878;2022-11-20T10:44:00;14.90;;;10.23;;
15082;SDS011;7640;53.116;6.878;2022-11-20T10:46:34;13.93;;;9.70;;
15082;SDS011;7640;53.116;6.878;2022-11-20T10:49:12;16.07;;;11.07;;
15082;SDS011;7640;53.116;6.878;2022-11-20T10:51:45;15.47;;;10.27;;
15082;SDS011;7640;53.116;6.878;2022-11-20T10:54:29;14.53;;;9.93;;
15082;SDS011;7640;53.116;6.878;2022-11-20T10:57:06;12.73;;;9.73;;
15082;SDS011;7640;53.116;6.878;2022-11-20T10:59:51;14.47;;;9.63;;
15082;SDS011;7640;53.116;6.878;2022-11-20T11:02:35;14.13;;;9.57;;
15082;SDS011;7640;53.116;6.878;2022-11-20T11:05:18;14.40;;;9.70;;
15082;SDS011;7640;53.116;6.878;2022-11-20T11:07:55;13.20;;;9.00;;
15082;SDS011;7640;53.116;6.878;2022-11-20T11:10:29;12.67;;;9.47;;
15082;SDS011;7640;53.116;6.878;2022-11-20T11:13:03;13.70;;;8.90;;
15082;SDS011;7640;53.116;6.878;2022-11-20T11:15:36;13.87;;;9.53;;
15082;SDS011;7640;53.116;6.878;2022-11-20T11:18:08;12.17;;;9.37;;
15082;SDS011;7640;53.116;6.878;2022-11-20T11:20:38;12.47;;;9.10;;
15082;SDS011;7640;53.116;6.878;2022-11-20T11:23:22;13.13;;;9.93;;
15082;SDS011;7640;53.116;6.878;2022-11-20T11:26:00;12.90;;;9.03;;
15082;SDS011;7640;53.116;6.878;2022-11-20T11:28:30;12.70;;;8.90;;
15082;SDS011;7640;53.116;6.878;2022-11-20T11:30:59;13.83;;;9.70;;
15082;SDS011;7640;53.116;6.878;2022-11-20T11:33:29;13.50;;;8.93;;
15082;SDS011;7640;53.116;6.878;2022-11-20T11:36:01;12.27;;;8.97;;
15082;SDS011;7640;53.116;6.878;2022-11-20T11:38:34;12.37;;;9.40;;
15082;SDS011;7640;53.116;6.878;2022-11-20T11:41:06;11.47;;;8.77;;
15082;SDS011;7640;53.116;6.878;2022-11-20T11:43:51;12.67;;;8.63;;
15082;SDS011;7640;53.116;6.878;2022-11-20T11:46:40;10.97;;;8.00;;
15082;SDS011;7640;53.116;6.878;2022-11-20T11:49:21;11.17;;;8.27;;
15082;SDS011;7640;53.116;6.878;2022-11-20T11:51:56;10.60;;;8.43;;
15082;SDS011;7640;53.116;6.878;2022-11-20T11:54:35;12.13;;;8.20;;
15082;SDS011;7640;53.116;6.878;2022-11-20T11:57:10;12.17;;;9.07;;
15082;SDS011;7640;53.116;6.878;2022-11-20T11:59:49;10.60;;;8.17;;
15082;SDS011;7640;53.116;6.878;2022-11-20T12:02:34;11.90;;;8.23;;
15082;SDS011;7640;53.116;6.878;2022-11-20T12:05:14;11.03;;;8.57;;
15082;SDS011;7640;53.116;6.878;2022-11-20T12:07:49;12.57;;;9.20;;
15082;SDS011;7640;53.116;6.878;2022-11-20T12:10:28;12.80;;;9.23;;
15082;SDS011;7640;53.116;6.878;2022-11-20T12:13:13;12.00;;;8.90;;
15082;SDS011;7640;53.116;6.878;2022-11-20T12:15:52;10.70;;;8.17;;
15082;SDS011;7640;53.116;6.878;2022-11-20T12:18:21;10.43;;;8.10;;
15082;SDS011;7640;53.116;6.878;2022-11-20T12:20:55;10.50;;;7.90;;
15082;SDS011;7640;53.116;6.878;2022-11-20T12:23:41;11.60;;;8.67;;
15082;SDS011;7640;53.116;6.878;2022-11-20T12:26:25;11.37;;;8.03;;
15082;SDS011;7640;53.116;6.878;2022-11-20T12:29:21;11.43;;;7.43;;
15082;SDS011;7640;53.116;6.878;2022-11-20T12:32:17;11.93;;;8.23;;
15082;SDS011;7640;53.116;6.878;2022-11-20T12:35:29;11.27;;;8.57;;
15082;SDS011;7640;53.116;6.878;2022-11-20T12:38:25;14.63;;;9.53;;
15082;SDS011;7640;53.116;6.878;2022-11-20T12:41:11;12.10;;;8.50;;
15082;SDS011;7640;53.116;6.878;2022-11-20T12:44:10;9.33;;;7.43;;
15082;SDS011;7640;53.116;6.878;2022-11-20T12:47:11;10.73;;;7.90;;
15082;SDS011;7640;53.116;6.878;2022-11-20T12:49:48;15.00;;;8.10;;
15082;SDS011;7640;53.116;6.878;2022-11-20T12:52:30;13.93;;;8.23;;
15082;SDS011;7640;53.116;6.878;2022-11-20T12:55:16;9.63;;;7.30;;
15082;SDS011;7640;53.116;6.878;2022-11-20T12:57:54;12.40;;;8.83;;
15082;SDS011;7640;53.116;6.878;2022-11-20T13:00:25;10.73;;;7.87;;
15082;SDS011;7640;53.116;6.878;2022-11-20T13:03:06;9.10;;;6.27;;
15082;SDS011;7640;53.116;6.878;2022-11-20T13:05:59;8.13;;;6.57;;
15082;SDS011;7640;53.116;6.878;2022-11-20T13:08:41;9.83;;;6.63;;
15082;SDS011;7640;53.116;6.878;2022-11-20T13:11:19;9.33;;;6.33;;
15082;SDS011;7640;53.116;6.878;2022-11-20T13:13:59;7.60;;;6.40;;
15082;SDS011;7640;53.116;6.878;2022-11-20T13:16:45;8.83;;;6.80;;
15082;SDS011;7640;53.116;6.878;2022-11-20T13:19:17;9.10;;;6.93;;
15082;SDS011;7640;53.116;6.878;2022-11-20T13:21:47;9.43;;;7.33;;
15082;SDS011;7640;53.116;6.878;2022-11-20T13:24:22;8.73;;;6.67;;
15082;SDS011;7640;53.116;6.878;2022-11-20T13:27:02;9.97;;;7.30;;
15082;SDS011;7640;53.116;6.878;2022-11-20T13:29:45;9.67;;;7.03;;
15082;SDS011;7640;53.116;6.878;2022-11-20T13:32:27;8.63;;;6.67;;
15082;SDS011;7640;53.116;6.878;2022-11-20T13:34:59;10.27;;;7.67;;
15082;SDS011;7640;53.116;6.878;2022-11-20T13:37:30;10.77;;;7.10;;
15082;SDS011;7640;53.116;6.878;2022-11-20T13:40:19;10.30;;;7.23;;
15082;SDS011;7640;53.116;6.878;2022-11-20T13:43:01;11.60;;;7.60;;
15082;SDS011;7640;53.116;6.878;2022-11-20T13:45:54;11.67;;;8.17;;
15082;SDS011;7640;53.116;6.878;2022-11-20T13:48:29;11.33;;;7.83;;
15082;SDS011;7640;53.116;6.878;2022-11-20T13:51:06;11.33;;;8.40;;
15082;SDS011;7640;53.116;6.878;2022-11-20T13:56:53;11.20;;;7.83;;
15082;SDS011;7640;53.116;6.878;2022-11-20T13:59:38;10.60;;;8.00;;
15082;SDS011;7640;53.116;6.878;2022-11-20T14:02:18;10.53;;;8.00;;
15082;SDS011;7640;53.116;6.878;2022-11-20T14:04:50;11.33;;;8.33;;
15082;SDS011;7640;53.116;6.878;2022-11-20T14:07:21;11.00;;;8.20;;
15082;SDS011;7640;53.116;6.878;2022-11-20T14:09:55;11.63;;;7.93;;
15082;SDS011;7640;53.116;6.878;2022-11-20T14:12:27;10.23;;;7.67;;
15082;SDS011;7640;53.116;6.878;2022-11-20T14:15:00;12.80;;;8.93;;
15082;SDS011;7640;53.116;6.878;2022-11-20T14:17:30;13.20;;;8.83;;
15082;SDS011;7640;53.116;6.878;2022-11-20T14:20:01;12.77;;;8.97;;
15082;SDS011;7640;53.116;6.878;2022-11-20T14:22:34;12.50;;;8.80;;
15082;SDS011;7640;53.116;6.878;2022-11-20T14:25:04;14.57;;;9.73;;
15082;SDS011;7640;53.116;6.878;2022-11-20T14:27:48;14.13;;;9.40;;
15082;SDS011;7640;53.116;6.878;2022-11-20T14:30:22;10.50;;;8.60;;
15082;SDS011;7640;53.116;6.878;2022-11-20T14:32:53;11.60;;;8.23;;
15082;SDS011;7640;53.116;6.878;2022-11-20T14:35:24;13.50;;;9.13;;
15082;SDS011;7640;53.116;6.878;2022-11-20T14:37:55;12.80;;;9.17;;
15082;SDS011;7640;53.116;6.878;2022-11-20T14:40:26;12.23;;;9.47;;
15082;SDS011;7640;53.116;6.878;2022-11-20T14:42:57;13.70;;;9.53;;
15082;SDS011;7640;53.116;6.878;2022-11-20T14:45:28;14.07;;;10.20;;
15082;SDS011;7640;53.116;6.878;2022-11-20T14:47:57;12.57;;;9.80;;
15082;SDS011;7640;53.116;6.878;2022-11-20T14:50:27;14.13;;;9.90;;
15082;SDS011;7640;53.116;6.878;2022-11-20T14:52:57;12.70;;;10.03;;
15082;SDS011;7640;53.116;6.878;2022-11-20T14:55:28;16.60;;;11.20;;
15082;SDS011;7640;53.116;6.878;2022-11-20T14:58:00;16.13;;;11.03;;
15082;SDS011;7640;53.116;6.878;2022-11-20T15:00:33;14.33;;;10.33;;
15082;SDS011;7640;53.116;6.878;2022-11-20T15:03:13;14.30;;;10.50;;
15082;SDS011;7640;53.116;6.878;2022-11-20T15:05:44;14.90;;;10.33;;
15082;SDS011;7640;53.116;6.878;2022-11-20T15:08:15;15.07;;;10.43;;
15082;SDS011;7640;53.116;6.878;2022-11-20T15:10:46;15.03;;;10.73;;
15082;SDS011;7640;53.116;6.878;2022-11-20T15:13:18;14.67;;;10.43;;
15082;SDS011;7640;53.116;6.878;2022-11-20T15:15:55;14.97;;;10.93;;
15082;SDS011;7640;53.116;6.878;2022-11-20T15:18:27;14.00;;;9.83;;
15082;SDS011;7640;53.116;6.878;2022-11-20T15:21:01;14.17;;;10.17;;